Time;durP1;ratioP1;P1;durP2;ratioP2;P2;SDS_P1;SDS_P2;PMS_P1;PMS_P2;Temp;Humidity;BMP_temperature;BMP_pressure;BME280_temperature;BME280_humidity;BME280_pressure;Samples;Min_cycle;Max_cycle;Signal;HPM_P1;HPM_P2
2023/05/02 00:00:31;;;;;;;0.70;0.70;;;;;;;16.48;52.07;100652.59;5088297;28;20194;-72
2023/05/02 00:02:58;;;;;;;0.60;0.60;;;;;;;16.47;51.99;100650.00;5090126;28;20623;-72
2023/05/02 00:05:26;;;;;;;1.70;1.60;;;;;;;16.52;52.17;100653.47;5070540;28;20312;-73
2023/05/02 00:07:53;;;;;;;0.70;0.70;;;;;;;16.45;52.24;100651.72;5090406;28;20206;-73
2023/05/02 00:10:20;;;;;;;0.80;0.80;;;;;;;16.36;52.49;100658.72;5090529;28;20197;-73
2023/05/02 00:12:47;;;;;;;0.70;0.70;;;;;;;16.31;52.46;100646.47;5055599;28;20206;-73
2023/05/02 00:15:14;;;;;;;0.82;0.82;;;;;;;16.30;53.10;100658.69;5090692;28;20198;-73
2023/05/02 00:17:42;;;;;;;0.70;0.70;;;;;;;15.73;52.83;100564.47;5090458;28;20586;-73
2023/05/02 00:20:10;;;;;;;0.70;0.70;;;;;;;16.10;53.19;100649.94;5089795;28;20197;-73
2023/05/02 00:22:39;;;;;;;0.63;0.63;;;;;;;16.23;52.26;100662.16;5090482;28;20202;-72
2023/05/02 00:25:06;;;;;;;0.60;0.60;;;;;;;16.09;52.99;100652.56;5090582;28;20291;-72
2023/05/02 00:27:33;;;;;;;1.05;1.05;;;;;;;16.07;52.91;100652.56;5071378;28;20205;-72
2023/05/02 00:30:00;;;;;;;0.70;0.70;;;;;;;15.89;53.09;100665.59;5090553;28;20194;-69
2023/05/02 00:32:27;;;;;;;0.70;0.70;;;;;;;15.87;52.99;100654.28;5085810;28;20823;-73
2023/05/02 00:34:54;;;;;;;0.73;0.73;;;;;;;15.99;52.80;100662.13;5089356;28;20649;-73
2023/05/02 00:37:21;;;;;;;0.70;0.70;;;;;;;16.03;52.71;100661.28;5090037;28;20230;-73
2023/05/02 00:39:49;;;;;;;1.88;1.77;;;;;;;16.09;52.22;100666.50;5090325;28;20198;-73
2023/05/02 00:42:16;;;;;;;0.70;0.70;;;;;;;15.96;52.53;100664.75;5073314;28;20537;-73
2023/05/02 00:44:42;;;;;;;0.90;0.90;;;;;;;16.01;53.16;100663.03;5090219;28;20255;-73
2023/05/02 00:47:10;;;;;;;0.70;0.70;;;;;;;16.01;52.54;100655.19;5089574;28;20681;-73
2023/05/02 00:49:37;;;;;;;0.70;0.70;;;;;;;15.97;52.52;100676.09;5089724;28;20198;-72
2023/05/02 00:52:03;;;;;;;0.70;0.70;;;;;;;16.02;52.59;100667.38;5090101;28;20206;-72
2023/05/02 00:54:31;;;;;;;0.70;0.70;;;;;;;15.79;52.35;100628.09;5090457;28;20215;-73
2023/05/02 00:56:59;;;;;;;0.70;0.70;;;;;;;16.08;52.81;100670.03;5089956;28;20250;-73
2023/05/02 00:59:26;;;;;;;0.60;0.60;;;;;;;16.00;52.92;100669.13;5090347;28;20198;-73
2023/05/02 01:02:05;;;;;;;0.70;0.70;;;;;;;16.03;52.85;100670.88;5090056;28;20206;-73
2023/05/02 01:04:40;;;;;;;0.68;0.68;;;;;;;16.03;52.87;100669.13;5089910;28;20345;-73
2023/05/02 01:07:25;;;;;;;0.70;0.70;;;;;;;15.99;53.03;100677.81;5090005;28;20209;-73
2023/05/02 01:10:01;;;;;;;0.80;0.80;;;;;;;15.99;53.00;100645.56;5089888;28;20205;-72
2023/05/02 01:12:37;;;;;;;0.70;0.70;;;;;;;16.09;53.17;100671.75;5090058;28;20205;-72
2023/05/02 01:15:09;;;;;;;0.70;0.70;;;;;;;16.02;53.23;100661.25;5090406;28;20198;-73
2023/05/02 01:17:37;;;;;;;0.70;0.70;;;;;;;16.03;53.47;100669.13;5090355;28;20226;-72
2023/05/02 01:20:10;;;;;;;0.70;0.70;;;;;;;15.98;54.01;100676.06;5090524;28;20212;-72
2023/05/02 01:22:39;;;;;;;0.60;0.60;;;;;;;15.88;54.07;100661.22;5077067;28;20205;-72
2023/05/02 01:25:19;;;;;;;0.60;0.60;;;;;;;16.05;54.39;100671.75;5090292;28;20622;-72
2023/05/02 01:27:57;;;;;;;0.60;0.60;;;;;;;16.11;54.29;100667.41;5034614;28;20230;-72
2023/05/02 01:30:29;;;;;;;0.60;0.60;;;;;;;16.09;54.60;100668.25;5084769;28;20222;-72
2023/05/02 01:32:58;;;;;;;9.95;3.22;;;;;;;16.04;54.41;100668.25;5093796;28;20268;-72
2023/05/02 01:35:26;;;;;;;0.70;0.70;;;;;;;15.97;54.55;100649.94;5093631;28;20567;-72
2023/05/02 01:37:55;;;;;;;0.90;0.90;;;;;;;16.00;54.65;100663.88;5093132;28;20221;-72
2023/05/02 01:40:25;;;;;;;0.70;0.70;;;;;;;15.99;55.23;100667.38;5093794;28;20605;-72
2023/05/02 01:42:53;;;;;;;0.60;0.60;;;;;;;15.99;55.15;100669.97;5093607;28;20208;-72
2023/05/02 01:45:22;;;;;;;0.77;0.77;;;;;;;15.97;55.57;100663.88;5093607;28;20212;-72
2023/05/02 01:47:52;;;;;;;0.70;0.70;;;;;;;15.96;55.54;100672.59;5093501;28;20222;-72
2023/05/02 01:50:22;;;;;;;0.60;0.60;;;;;;;16.00;56.25;100669.13;5093428;28;20209;-72
2023/05/02 01:52:51;;;;;;;0.70;0.70;;;;;;;15.92;56.03;100669.97;5093554;28;20210;-72
2023/05/02 01:55:18;;;;;;;0.73;0.73;;;;;;;15.94;55.84;100674.34;5093211;28;20205;-72
2023/05/02 01:57:49;;;;;;;0.70;0.70;;;;;;;16.06;56.73;100668.25;5093506;28;20221;-72
2023/05/02 02:00:18;;;;;;;0.70;0.70;;;;;;;16.04;56.69;100676.09;5093220;28;20259;-72
2023/05/02 02:02:46;;;;;;;0.80;0.80;;;;;;;15.97;57.42;100673.47;5058130;28;20194;-73
2023/05/02 02:05:16;;;;;;;2.05;1.80;;;;;;;16.02;57.72;100669.97;5092399;28;20588;-73
2023/05/02 02:07:43;;;;;;;0.82;0.82;;;;;;;15.96;58.21;100672.59;5054200;28;20262;-73
2023/05/02 02:10:11;;;;;;;0.60;0.60;;;;;;;16.02;57.84;100672.59;5038522;28;20233;-73
2023/05/02 02:12:41;;;;;;;0.70;0.70;;;;;;;16.19;58.25;100672.66;5092575;28;20758;-73
2023/05/02 02:15:13;;;;;;;0.75;0.75;;;;;;;16.21;57.91;100677.00;5092720;28;20198;-73
2023/05/02 02:17:44;;;;;;;0.70;0.70;;;;;;;16.16;57.99;100673.50;5092564;28;20250;-72
2023/05/02 02:20:13;;;;;;;0.60;0.60;;;;;;;16.05;58.92;100672.59;5092455;28;20208;-72
2023/05/02 02:22:44;;;;;;;0.63;0.63;;;;;;;16.05;58.67;100677.84;5072825;28;20199;-72
2023/05/02 02:25:13;;;;;;;0.82;0.82;;;;;;;15.98;58.80;100676.06;5092486;28;20206;-73
2023/05/02 02:27:41;;;;;;;0.63;0.63;;;;;;;15.88;59.43;100664.72;5069822;28;20199;-72
2023/05/02 02:30:09;;;;;;;0.70;0.70;;;;;;;15.93;59.31;100672.59;5072353;28;20210;-72
2023/05/02 02:32:36;;;;;;;0.80;0.80;;;;;;;15.87;60.21;100678.66;5053835;28;20210;-72
2023/05/02 02:35:03;;;;;;;0.60;0.60;;;;;;;15.82;60.43;100675.19;5077883;28;20202;-72
2023/05/02 02:37:32;;;;;;;0.70;0.70;;;;;;;15.82;61.25;100658.59;5091397;28;20240;-72
2023/05/02 02:40:07;;;;;;;0.70;0.70;;;;;;;16.01;60.03;100683.97;5092469;28;20194;-72
2023/05/02 02:42:42;;;;;;;0.80;0.80;;;;;;;15.80;60.89;100655.13;5092064;28;20208;-72
2023/05/02 02:45:25;;;;;;;0.60;0.60;;;;;;;15.94;60.58;100679.56;5090431;28;20621;-72
2023/05/02 02:48:02;;;;;;;0.60;0.60;;;;;;;15.82;61.31;100676.91;5064107;28;20213;-73
2023/05/02 02:50:32;;;;;;;0.70;0.70;;;;;;;15.63;61.51;100662.91;5091103;28;20899;-72
2023/05/02 02:53:03;;;;;;;0.70;0.70;;;;;;;15.83;61.16;100681.28;5090195;28;20213;-73
2023/05/02 02:55:47;;;;;;;0.60;0.60;;;;;;;15.92;61.17;100681.28;5087204;28;20658;-73
2023/05/02 02:58:21;;;;;;;0.68;0.68;;;;;;;15.61;61.14;100627.16;5090590;28;20222;-73
2023/05/02 03:00:49;;;;;;;0.70;0.70;;;;;;;15.73;61.22;100682.13;5092153;28;20194;-72
2023/05/02 03:03:17;;;;;;;0.70;0.70;;;;;;;16.03;76.02;100683.94;5091898;28;20198;-72
2023/05/02 03:05:44;;;;;;;0.70;0.70;;;;;;;16.03;64.65;100674.34;5092295;28;20277;-75
2023/05/02 03:08:12;;;;;;;0.70;0.70;;;;;;;15.94;65.34;100689.16;5091788;28;20193;-72
2023/05/02 03:10:40;;;;;;;0.65;0.65;;;;;;;15.92;63.38;100691.75;5091830;28;20194;-72
2023/05/02 03:13:07;;;;;;;0.80;0.80;;;;;;;15.76;62.01;100666.44;5091646;28;20205;-72
2023/05/02 03:16:14;;;;;;;0.60;0.60;;;;;;;16.01;62.77;100673.50;5091360;28;20251;-72
2023/05/02 03:18:41;;;;;;;0.70;0.70;;;;;;;15.38;61.53;100609.63;5090548;28;20218;-72
2023/05/02 03:21:08;;;;;;;0.60;0.60;;;;;;;15.83;61.25;100696.97;5091699;28;20255;-72
2023/05/02 03:23:35;;;;;;;0.70;0.70;;;;;;;15.40;69.57;100607.03;5052823;28;20207;-72
2023/05/02 03:26:03;;;;;;;0.60;0.60;;;;;;;16.00;61.55;100697.91;5090636;28;20199;-72
2023/05/02 03:28:29;;;;;;;0.60;0.60;;;;;;;15.92;60.44;100686.53;5087894;28;20206;-72
2023/05/02 03:30:56;;;;;;;0.70;0.70;;;;;;;16.05;60.00;100701.38;5091387;28;20209;-68
2023/05/02 03:33:24;;;;;;;0.70;0.70;;;;;;;16.18;59.35;100710.16;5081599;28;20291;-71
2023/05/02 03:35:51;;;;;;;0.70;0.70;;;;;;;15.99;58.50;100709.22;5086628;28;20207;-72
2023/05/02 03:38:17;;;;;;;0.70;0.70;;;;;;;16.11;57.99;100703.16;5080027;28;20226;-72
2023/05/02 03:40:44;;;;;;;0.70;0.70;;;;;;;16.54;64.03;100710.22;5089370;28;20217;-72
2023/05/02 03:43:12;;;;;;;0.70;0.70;;;;;;;17.14;56.04;100698.84;5090930;28;20189;-71
2023/05/02 03:45:39;;;;;;;0.70;0.70;;;;;;;17.94;53.37;100717.88;5090126;28;20205;-71
2023/05/02 03:48:06;;;;;;;0.70;0.70;;;;;;;18.64;50.64;100713.94;5089376;28;20198;-71
2023/05/02 03:50:33;;;;;;;0.63;0.63;;;;;;;19.20;48.69;100723.94;5091068;28;20221;-72
2023/05/02 03:52:59;;;;;;;0.70;0.70;;;;;;;19.68;46.55;100727.88;5081460;28;20234;-73
2023/05/02 03:55:27;;;;;;;0.60;0.60;;;;;;;19.76;46.42;100714.63;5079049;28;20201;-73
2023/05/02 03:57:54;;;;;;;0.60;0.60;;;;;;;20.57;44.99;100731.06;5091351;28;20225;-73
2023/05/02 04:00:22;;;;;;;0.60;0.60;;;;;;;20.91;43.65;100728.72;5090328;28;20259;-72
2023/05/02 04:02:50;;;;;;;0.50;0.50;;;;;;;21.14;42.80;100742.44;5072535;28;20222;-72
2023/05/02 04:05:17;;;;;;;0.60;0.60;;;;;;;21.64;42.33;100738.88;5091244;28;20277;-73
2023/05/02 04:07:43;;;;;;;0.85;0.85;;;;;;;22.12;43.99;100738.75;5090901;28;20230;-73
2023/05/02 04:10:15;;;;;;;0.60;0.60;;;;;;;22.06;45.36;100742.41;5091246;28;20198;-73
2023/05/02 04:12:42;;;;;;;0.60;0.60;;;;;;;22.29;44.66;100704.94;5090685;28;20200;-72
2023/05/02 04:15:10;;;;;;;0.57;0.57;;;;;;;22.95;43.68;100744.78;5091013;28;20237;-71
2023/05/02 04:17:38;;;;;;;0.60;0.60;;;;;;;23.16;43.11;100744.22;5090186;28;20194;-71
2023/05/02 04:20:05;;;;;;;0.60;0.60;;;;;;;23.22;43.22;100746.69;5087555;28;20198;-72
2023/05/02 04:22:33;;;;;;;0.50;0.50;;;;;;;23.10;43.33;100748.81;5091034;28;20221;-72
2023/05/02 04:25:00;;;;;;;0.57;0.57;;;;;;;23.42;42.87;100753.28;5071921;28;20210;-71
2023/05/02 04:27:27;;;;;;;0.63;0.63;;;;;;;23.33;40.86;100748.22;5089082;28;20688;-72
2023/05/02 04:29:54;;;;;;;0.60;0.60;;;;;;;23.97;51.21;100752.63;5090465;28;20205;-72
2023/05/02 04:32:21;;;;;;;0.60;0.60;;;;;;;24.11;40.50;100755.72;5091040;28;20275;-73
2023/05/02 04:34:49;;;;;;;0.57;0.57;;;;;;;24.68;39.00;100766.38;5090909;28;20198;-73
2023/05/02 04:37:16;;;;;;;0.50;0.50;;;;;;;25.22;38.17;100762.84;5090510;28;20202;-73
2023/05/02 04:39:43;;;;;;;0.50;0.50;;;;;;;25.84;38.09;100782.75;5090833;28;20237;-73
2023/05/02 04:42:09;;;;;;;0.50;0.50;;;;;;;26.09;36.75;100780.06;5089648;28;20203;-73
2023/05/02 04:44:36;;;;;;;0.50;0.50;;;;;;;26.28;35.06;100774.94;5076069;28;20202;-73
2023/05/02 04:47:03;;;;;;;0.60;0.60;;;;;;;26.38;34.23;100784.28;5090277;28;20586;-73
2023/05/02 04:49:30;;;;;;;0.50;0.50;;;;;;;26.53;33.63;100773.06;5090070;28;20233;-73
2023/05/02 04:51:59;;;;;;;0.60;0.60;;;;;;;26.56;33.09;100771.16;5089146;28;20622;-73
2023/05/02 04:54:26;;;;;;;0.50;0.50;;;;;;;25.96;32.63;100771.69;5090331;28;20673;-73
2023/05/02 04:56:53;;;;;;;0.50;0.50;;;;;;;26.40;31.46;100698.19;5090343;28;20201;-73
2023/05/02 04:59:20;;;;;;;0.55;0.55;;;;;;;25.35;33.25;100778.28;5055011;28;20693;-73
2023/05/02 05:01:47;;;;;;;0.60;0.60;;;;;;;25.68;33.35;100780.72;5089767;28;20190;-73
2023/05/02 05:04:13;;;;;;;0.60;0.60;;;;;;;26.08;32.68;100775.66;5090969;28;20213;-72
2023/05/02 05:06:40;;;;;;;0.50;0.50;;;;;;;25.48;34.50;100774.28;5094075;28;20213;-70
2023/05/02 05:09:08;;;;;;;0.60;0.60;;;;;;;26.16;32.84;100768.25;5093330;28;20210;-66
2023/05/02 05:11:37;;;;;;;0.60;0.60;;;;;;;26.02;32.88;100776.75;5093514;28;20595;-67
2023/05/02 05:14:04;;;;;;;0.60;0.60;;;;;;;25.73;33.55;100779.63;5094283;28;20585;-67
2023/05/02 05:16:30;;;;;;;0.60;0.60;;;;;;;25.16;33.01;100769.22;5094115;28;20202;-70
2023/05/02 05:18:57;;;;;;;0.70;0.70;;;;;;;23.44;35.09;100736.44;5094289;28;20226;-70
2023/05/02 05:21:24;;;;;;;0.68;0.68;;;;;;;23.96;35.63;100770.28;5093911;28;20214;-69
2023/05/02 05:23:51;;;;;;;0.60;0.60;;;;;;;23.62;35.77;100773.00;5094564;28;20210;-68
2023/05/02 05:26:19;;;;;;;0.65;0.65;;;;;;;23.63;35.98;100780.06;5094440;28;20213;-69
2023/05/02 05:28:46;;;;;;;0.60;0.60;;;;;;;23.62;35.98;100757.13;5093552;28;20202;-67
2023/05/02 05:31:15;;;;;;;0.70;0.70;;;;;;;23.46;36.21;100781.41;5093790;28;20198;-73
2023/05/02 05:33:43;;;;;;;0.60;0.60;;;;;;;23.23;36.55;100766.97;5074828;28;20221;-72
2023/05/02 05:36:11;;;;;;;0.60;0.60;;;;;;;22.66;37.93;100781.59;5084320;28;20570;-73
2023/05/02 05:38:38;;;;;;;0.68;0.68;;;;;;;21.50;41.68;100777.84;5093342;28;20225;-71
2023/05/02 05:41:06;;;;;;;0.73;0.73;;;;;;;21.75;41.54;100797.59;5093339;28;20213;-74
2023/05/02 05:43:35;;;;;;;0.65;0.65;;;;;;;21.49;42.73;100793.69;5092532;28;20198;-74
2023/05/02 05:46:01;;;;;;;0.70;0.70;;;;;;;21.72;46.80;100791.50;5092811;28;20228;-74
2023/05/02 05:48:28;;;;;;;0.60;0.60;;;;;;;21.64;49.31;100790.78;5092856;28;20217;-74
2023/05/02 05:50:55;;;;;;;0.60;0.60;;;;;;;21.09;52.32;100797.00;5093015;28;20230;-73
2023/05/02 05:53:22;;;;;;;0.70;0.70;;;;;;;20.05;55.02;100757.22;5093130;28;20671;-75
2023/05/02 05:55:48;;;;;;;0.70;0.70;;;;;;;19.45;58.02;100792.13;5093133;28;20202;-74
2023/05/02 05:58:15;;;;;;;0.70;0.70;;;;;;;19.27;59.35;100794.00;5093078;28;20230;-74
2023/05/02 06:00:43;;;;;;;0.90;0.90;;;;;;;19.46;62.10;100788.59;5093259;28;20210;-76
2023/05/02 06:03:10;;;;;;;0.70;0.70;;;;;;;19.18;62.18;100796.72;5093074;28;20213;-76
2023/05/02 06:05:37;;;;;;;0.70;0.70;;;;;;;18.97;62.70;100788.16;5093103;28;20202;-75
2023/05/02 06:08:04;;;;;;;0.70;0.70;;;;;;;19.10;62.93;100759.09;5092898;28;20199;-77
2023/05/02 06:10:31;;;;;;;0.75;0.75;;;;;;;19.40;63.16;100788.66;5092751;28;20206;-68
2023/05/02 06:12:58;;;;;;;0.70;0.70;;;;;;;19.25;63.86;100798.41;5092551;28;20201;-68
2023/05/02 06:15:24;;;;;;;0.60;0.60;;;;;;;19.31;66.27;100798.34;5092581;28;20207;-68
2023/05/02 06:17:53;;;;;;;0.70;0.70;;;;;;;19.48;66.73;100797.34;5092819;28;20204;-68
2023/05/02 06:20:19;;;;;;;0.70;0.70;;;;;;;19.15;65.71;100794.13;5092782;28;20218;-68
2023/05/02 06:22:46;;;;;;;0.60;0.60;;;;;;;19.35;67.31;100790.44;5092563;28;20218;-68
2023/05/02 06:25:13;;;;;;;0.70;0.70;;;;;;;19.48;67.95;100792.97;5092631;28;20198;-69
2023/05/02 06:27:40;;;;;;;1.35;1.35;;;;;;;19.52;63.85;100793.78;5092280;28;20198;-69
2023/05/02 06:30:08;;;;;;;0.98;0.90;;;;;;;19.85;63.80;100787.31;5092304;28;20206;-68
2023/05/02 06:32:35;;;;;;;0.70;0.70;;;;;;;19.77;60.76;100790.03;5057106;28;20214;-75
2023/05/02 06:35:03;;;;;;;0.60;0.60;;;;;;;19.92;58.56;100789.84;5092623;28;20201;-74
2023/05/02 06:37:34;;;;;;;0.60;0.60;;;;;;;20.25;59.14;100776.28;5092318;28;20229;-74
2023/05/02 06:40:01;;;;;;;0.70;0.70;;;;;;;20.35;55.68;100787.59;5092799;28;20239;-74
2023/05/02 06:42:28;;;;;;;0.70;0.70;;;;;;;20.27;55.40;100787.69;5092719;28;20255;-74
2023/05/02 06:44:55;;;;;;;0.60;0.60;;;;;;;20.37;50.73;100782.31;5092514;28;20738;-74
2023/05/02 06:47:23;;;;;;;0.60;0.60;;;;;;;20.76;50.08;100787.84;5057000;28;20222;-74
2023/05/02 06:49:50;;;;;;;0.60;0.60;;;;;;;20.74;50.09;100796.69;5092468;28;20584;-74
2023/05/02 06:52:18;;;;;;;0.70;0.70;;;;;;;20.93;50.07;100795.50;5092523;28;20206;-74
2023/05/02 06:54:45;;;;;;;0.70;0.70;;;;;;;20.82;47.92;100792.16;5092698;28;20209;-74
2023/05/02 06:57:12;;;;;;;0.60;0.60;;;;;;;20.93;47.24;100795.50;5057214;28;20198;-74
2023/05/02 06:59:38;;;;;;;0.70;0.70;;;;;;;20.99;46.73;100782.22;5073750;28;20334;-74
2023/05/02 07:02:05;;;;;;;0.70;0.70;;;;;;;21.18;46.99;100786.34;5092389;28;20198;-74
2023/05/02 07:04:32;;;;;;;0.68;0.68;;;;;;;21.35;46.21;100798.34;5092381;28;20306;-74
2023/05/02 07:06:59;;;;;;;0.80;0.80;;;;;;;20.97;44.56;100733.06;5092227;28;20659;-74
2023/05/02 07:09:27;;;;;;;0.60;0.60;;;;;;;21.60;44.39;100778.53;5092243;28;20259;-74
2023/05/02 07:11:54;;;;;;;0.77;0.77;;;;;;;21.65;45.13;100797.81;5081259;28;20257;-74
2023/05/02 07:14:20;;;;;;;0.70;0.70;;;;;;;21.55;45.03;100791.81;5071546;28;20211;-72
2023/05/02 07:16:47;;;;;;;0.80;0.80;;;;;;;21.79;45.68;100785.22;5071473;28;20685;-70
2023/05/02 07:19:14;;;;;;;0.90;0.90;;;;;;;21.63;43.83;100796.94;5071465;28;20218;-72
2023/05/02 07:21:41;;;;;;;0.60;0.60;;;;;;;21.69;44.47;100800.34;5071396;28;20211;-72
2023/05/02 07:24:07;;;;;;;0.70;0.70;;;;;;;21.41;42.69;100767.44;5087258;28;20216;-72
2023/05/02 07:26:36;;;;;;;0.70;0.70;;;;;;;21.69;42.78;100796.81;5091465;28;20214;-72
2023/05/02 07:29:05;;;;;;;0.68;0.68;;;;;;;21.87;44.15;100800.91;5076944;28;20213;-73
2023/05/02 07:31:32;;;;;;;0.60;0.60;;;;;;;21.79;41.92;100798.41;5071439;28;20230;-75
2023/05/02 07:33:59;;;;;;;0.73;0.73;;;;;;;22.16;41.16;100795.91;5083976;28;20243;-74
2023/05/02 07:36:26;;;;;;;0.68;0.68;;;;;;;22.20;41.97;100777.34;5077155;28;20206;-74
2023/05/02 07:38:53;;;;;;;0.60;0.60;;;;;;;22.12;40.54;100789.81;5080567;28;20280;-74
2023/05/02 07:41:20;;;;;;;0.70;0.70;;;;;;;22.20;42.09;100792.31;5084996;28;20251;-74
2023/05/02 07:43:48;;;;;;;0.68;0.68;;;;;;;22.26;40.26;100788.69;5071020;28;20745;-73
2023/05/02 07:46:15;;;;;;;0.60;0.60;;;;;;;22.23;39.19;100798.41;5086359;28;20222;-73
2023/05/02 07:48:42;;;;;;;0.70;0.70;;;;;;;21.90;38.93;100803.50;5091241;28;20206;-73
2023/05/02 07:51:09;;;;;;;0.70;0.70;;;;;;;21.77;38.85;100808.13;5077873;28;20724;-73
2023/05/02 07:53:36;;;;;;;0.68;0.68;;;;;;;22.23;38.88;100793.13;5085061;28;20631;-73
2023/05/02 07:56:05;;;;;;;0.70;0.70;;;;;;;22.19;38.12;100780.88;5071140;28;20678;-73
2023/05/02 07:58:32;;;;;;;0.60;0.60;;;;;;;22.14;37.92;100784.53;5070502;28;20233;-73
2023/05/02 08:01:00;;;;;;;0.60;0.60;;;;;;;22.13;38.32;100806.56;5091163;28;20210;-73
2023/05/02 08:03:28;;;;;;;0.70;0.70;;;;;;;22.35;37.75;100797.28;5088520;28;20233;-73
2023/05/02 08:05:55;;;;;;;0.70;0.70;;;;;;;22.60;36.34;100793.19;5079927;28;20622;-73
2023/05/02 08:08:22;;;;;;;0.73;0.73;;;;;;;22.35;35.26;100764.69;5075763;28;20666;-74
2023/05/02 08:10:50;;;;;;;0.70;0.70;;;;;;;22.82;35.45;100798.88;5078108;28;20642;-74
2023/05/02 08:13:17;;;;;;;0.70;0.70;;;;;;;22.72;36.01;100786.78;5077140;28;20206;-71
2023/05/02 08:15:43;;;;;;;0.70;0.70;;;;;;;22.87;35.78;100773.19;5076209;28;20202;-74
2023/05/02 08:18:12;;;;;;;0.90;0.90;;;;;;;23.02;36.13;100790.44;5079089;28;20201;-78
2023/05/02 08:20:38;;;;;;;0.80;0.80;;;;;;;22.62;35.34;100771.97;5088851;28;20214;-77
2023/05/02 08:23:05;;;;;;;0.70;0.70;;;;;;;22.94;35.84;100787.13;5081509;28;20743;-76
2023/05/02 08:25:32;;;;;;;0.60;0.60;;;;;;;22.98;33.59;100794.94;5086131;28;20203;-76
2023/05/02 08:27:59;;;;;;;0.70;0.70;;;;;;;23.28;33.88;100776.56;5072040;28;20202;-75
2023/05/02 08:30:25;;;;;;;0.60;0.60;;;;;;;23.11;34.09;100775.25;5090685;28;20206;-69
2023/05/02 08:32:52;;;;;;;0.60;0.60;;;;;;;23.17;32.59;100795.38;5090746;28;20194;-75
2023/05/02 08:35:20;;;;;;;0.70;0.70;;;;;;;23.01;31.18;100789.56;5078752;28;20199;-74
2023/05/02 08:37:47;;;;;;;0.73;0.73;;;;;;;22.78;31.56;100791.91;5074848;28;20549;-75
2023/05/02 08:40:15;;;;;;;0.70;0.70;;;;;;;22.78;32.27;100786.63;5084521;28;20219;-75
2023/05/02 08:42:43;;;;;;;0.63;0.63;;;;;;;22.43;30.99;100747.78;5077119;28;20203;-74
2023/05/02 08:45:13;;;;;;;0.70;0.70;;;;;;;22.84;32.53;100765.31;5085672;28;20251;-75
2023/05/02 08:47:40;;;;;;;0.60;0.60;;;;;;;22.87;31.78;100786.41;5050096;28;20309;-73
2023/05/02 08:50:09;;;;;;;0.70;0.70;;;;;;;23.03;32.35;100781.63;5063680;28;20210;-67
2023/05/02 08:52:38;;;;;;;0.60;0.60;;;;;;;23.35;32.98;100789.59;5079919;28;20241;-67
2023/05/02 08:55:07;;;;;;;0.70;0.70;;;;;;;23.32;31.96;100788.81;5081071;28;20194;-67
2023/05/02 08:57:34;;;;;;;0.70;0.70;;;;;;;23.54;32.68;100790.03;5081088;28;20674;-67
2023/05/02 09:00:01;;;;;;;0.70;0.70;;;;;;;23.68;32.04;100785.22;5088400;28;20226;-73
2023/05/02 09:02:49;;;;;;;0.60;0.60;;;;;;;23.79;31.83;100783.16;5066690;28;20284;-74
2023/05/02 09:05:20;;;;;;;0.70;0.70;;;;;;;23.65;30.88;100778.22;5074205;28;20205;-75
2023/05/02 09:07:51;;;;;;;0.70;0.70;;;;;;;23.56;31.34;100788.19;5074004;28;20226;-74
2023/05/02 09:10:17;;;;;;;0.60;0.60;;;;;;;23.66;31.98;100784.38;5088009;28;20221;-75
2023/05/02 09:12:44;;;;;;;0.70;0.70;;;;;;;23.56;32.49;100777.59;5074093;28;20203;-73
2023/05/02 09:15:13;;;;;;;0.70;0.70;;;;;;;23.46;32.16;100784.94;5092365;28;20701;-73
2023/05/02 09:17:44;;;;;;;0.60;0.60;;;;;;;23.48;32.06;100753.09;5083685;28;20203;-73
2023/05/02 09:20:12;;;;;;;0.63;0.63;;;;;;;23.50;31.96;100769.84;5091194;28;20754;-72
2023/05/02 09:22:39;;;;;;;1.15;1.15;;;;;;;23.40;32.00;100778.91;5094776;28;20198;-71
2023/05/02 09:25:08;;;;;;;0.70;0.70;;;;;;;23.42;31.88;100763.88;5083193;28;20229;-74
2023/05/02 09:27:51;;;;;;;0.68;0.68;;;;;;;23.59;31.45;100762.50;5078123;28;20210;-73
2023/05/02 09:30:22;;;;;;;0.70;0.70;;;;;;;23.38;31.25;100757.75;5031445;28;20295;-73
2023/05/02 09:32:51;;;;;;;0.80;0.80;;;;;;;23.21;31.98;100760.84;5031376;28;20722;-74
2023/05/02 09:35:22;;;;;;;0.70;0.70;;;;;;;23.73;31.10;100756.81;5031555;28;20547;-73
2023/05/02 09:37:53;;;;;;;0.70;0.70;;;;;;;23.80;31.41;100750.44;5031200;28;20726;-75
2023/05/02 09:40:22;;;;;;;0.63;0.63;;;;;;;23.59;32.32;100745.75;5031454;28;20235;-74
2023/05/02 09:42:49;;;;;;;0.60;0.60;;;;;;;23.46;32.20;100702.00;5031052;28;20339;-74
2023/05/02 09:45:22;;;;;;;0.68;0.68;;;;;;;23.72;30.74;100741.88;4994923;28;20204;-74
2023/05/02 09:47:49;;;;;;;0.70;0.70;;;;;;;23.52;31.02;100708.00;5028076;28;20239;-73
2023/05/02 09:50:36;;;;;;;0.60;0.60;;;;;;;24.21;31.13;100745.75;5030654;28;20203;-74
2023/05/02 09:53:05;;;;;;;0.52;0.52;;;;;;;24.00;31.10;100740.16;5031120;28;20227;-74
2023/05/02 09:55:33;;;;;;;1.00;1.00;;;;;;;23.73;32.12;100711.81;5031064;28;20208;-74
2023/05/02 09:58:00;;;;;;;0.70;0.70;;;;;;;24.00;31.90;100728.69;4995480;28;20698;-74
2023/05/02 10:00:43;;;;;;;0.70;0.70;;;;;;;23.75;29.97;100688.81;5019877;28;20310;-74
2023/05/02 10:03:11;;;;;;;0.70;0.70;;;;;;;23.88;30.02;100729.91;5030893;28;20200;-74
2023/05/02 10:05:39;;;;;;;0.57;0.57;;;;;;;23.99;30.41;100716.34;5030720;28;20208;-74
2023/05/02 10:08:07;;;;;;;0.90;0.90;;;;;;;24.05;30.36;100718.81;5073216;28;20206;-73
2023/05/02 10:10:37;;;;;;;0.70;0.70;;;;;;;24.01;30.15;100728.63;5073044;28;20240;-74
2023/05/02 10:13:05;;;;;;;0.70;0.70;;;;;;;24.22;30.32;100721.00;5087655;28;20396;-74
2023/05/02 10:15:33;;;;;;;3.40;1.77;;;;;;;24.46;29.89;100715.78;5093263;28;20230;-74
2023/05/02 10:18:02;;;;;;;0.68;0.68;;;;;;;24.56;30.13;100695.13;5079414;28;20305;-74
2023/05/02 10:20:35;;;;;;;1.58;1.50;;;;;;;24.46;31.83;100729.03;5078002;28;20237;-74
2023/05/02 10:23:03;;;;;;;0.80;0.80;;;;;;;24.46;29.34;100722.88;5083634;28;20226;-74
2023/05/02 10:25:30;;;;;;;0.60;0.60;;;;;;;24.33;29.38;100718.88;5072348;28;20214;-74
2023/05/02 10:27:59;;;;;;;0.70;0.70;;;;;;;24.39;29.73;100698.34;5079509;28;20201;-74
2023/05/02 10:30:26;;;;;;;0.60;0.60;;;;;;;24.68;29.74;100715.97;5078675;28;20630;-74
2023/05/02 10:32:53;;;;;;;0.55;0.55;;;;;;;24.64;29.91;100711.69;5072672;28;20213;-73
2023/05/02 10:35:23;;;;;;;0.70;0.70;;;;;;;24.73;29.56;100707.84;5072352;28;20598;-73
2023/05/02 10:37:50;;;;;;;0.63;0.63;;;;;;;24.74;29.30;100714.88;5053920;28;20195;-73
2023/05/02 10:40:18;;;;;;;0.70;0.70;;;;;;;24.93;29.07;100711.63;5072309;28;20317;-72
2023/05/02 10:42:50;;;;;;;0.70;0.70;;;;;;;24.74;29.03;100693.66;5072491;28;20206;-72
2023/05/02 10:45:32;;;;;;;0.60;0.60;;;;;;;24.93;30.12;100706.31;5072417;28;20214;-73
2023/05/02 10:48:19;;;;;;;0.60;0.60;;;;;;;24.97;29.16;100696.47;5072827;28;20640;-73
2023/05/02 10:50:47;;;;;;;1.00;0.88;;;;;;;24.93;29.45;100694.81;5072378;28;20198;-73
2023/05/02 10:53:23;;;;;;;0.50;0.50;;;;;;;25.17;29.05;100709.91;5072252;28;20312;-73
2023/05/02 10:56:08;;;;;;;0.70;0.70;;;;;;;25.11;28.52;100700.34;5072252;28;20251;-73
2023/05/02 10:58:35;;;;;;;0.60;0.60;;;;;;;25.35;28.63;100687.13;5072175;28;20244;-73
2023/05/02 11:01:38;;;;;;;0.70;0.70;;;;;;;25.13;28.13;100693.22;5071848;28;20219;-73
2023/05/02 11:04:08;;;;;;;0.60;0.60;;;;;;;24.98;28.14;100668.97;5072014;28;20570;-73
2023/05/02 11:06:36;;;;;;;0.68;0.68;;;;;;;25.32;27.97;100697.88;5071994;28;20207;-73
2023/05/02 11:09:35;;;;;;;0.60;0.60;;;;;;;25.50;27.85;100682.16;5071820;28;20646;-73
2023/05/02 11:12:03;;;;;;;0.60;0.60;;;;;;;25.21;28.13;100694.72;5071726;28;20709;-73
2023/05/02 11:14:47;;;;;;;0.55;0.55;;;;;;;25.45;28.41;100684.09;5071927;28;20234;-73
2023/05/02 11:17:14;;;;;;;0.70;0.70;;;;;;;25.26;28.55;100680.34;5071948;28;20207;-72
2023/05/02 11:20:24;;;;;;;0.63;0.63;;;;;;;25.60;28.27;100677.38;5071781;28;20264;-73
2023/05/02 11:22:54;;;;;;;0.60;0.60;;;;;;;25.09;28.04;100662.38;5071650;28;20595;-73
2023/05/02 11:25:45;;;;;;;0.70;0.70;;;;;;;25.32;28.41;100676.63;5071496;28;20206;-73
2023/05/02 11:28:40;;;;;;;0.80;0.80;;;;;;;25.35;27.97;100681.84;5009748;28;20205;-73
2023/05/02 11:31:08;;;;;;;1.00;1.00;;;;;;;25.08;28.54;100681.88;5009404;28;20205;-73
2023/05/02 11:33:35;;;;;;;0.70;0.70;;;;;;;25.28;28.27;100678.53;5009729;28;20201;-73